Time;durP1;ratioP1;P1;durP2;ratioP2;P2;SDS_P1;SDS_P2;PMS_P1;PMS_P2;Temp;Humidity;BMP_temperature;BMP_pressure;BME280_temperature;BME280_humidity;BME280_pressure;Samples;Min_cycle;Max_cycle;Signal;HPM_P1;HPM_P2
2021/08/18 00:00:34;;;;;;;7.63;5.75;;;;;;;16.96;69.12;97405.56;5051798;28;20103;-79
2021/08/18 00:03:02;;;;;;;9.45;5.80;;;;;;;16.89;69.27;97398.00;5051767;28;20036;-79
2021/08/18 00:05:27;;;;;;;6.53;4.97;;;;;;;16.98;69.03;97398.97;5051925;28;20033;-79
2021/08/18 00:07:52;;;;;;;9.40;6.22;;;;;;;16.91;69.41;97393.25;5034874;28;20431;-79
2021/08/18 00:10:18;;;;;;;8.15;5.65;;;;;;;16.96;68.46;97393.19;5052228;28;20120;-79
2021/08/18 00:12:43;;;;;;;6.82;5.78;;;;;;;16.94;69.57;97397.19;5035460;28;20372;-79
2021/08/18 00:15:11;;;;;;;7.88;6.03;;;;;;;16.83;69.89;97393.84;5035243;28;20021;-79
2021/08/18 00:17:37;;;;;;;8.30;6.35;;;;;;;16.94;69.26;97397.19;5035202;28;20571;-79
2021/08/18 00:20:03;;;;;;;8.02;6.00;;;;;;;16.98;69.15;97396.34;5051721;28;20032;-79
2021/08/18 00:22:28;;;;;;;8.50;5.80;;;;;;;16.96;69.05;97398.44;5026563;28;20605;-79
2021/08/18 00:24:54;;;;;;;8.48;5.93;;;;;;;16.98;69.11;97401.59;5035016;28;20115;-79
2021/08/18 00:27:19;;;;;;;7.60;6.50;;;;;;;16.97;69.03;97407.91;5034656;28;20037;-79
2021/08/18 00:29:44;;;;;;;6.75;5.38;;;;;;;16.96;69.18;97408.97;5050532;28;20044;-79
2021/08/18 00:32:10;;;;;;;9.45;6.80;;;;;;;16.99;69.21;97405.00;5051556;28;20524;-79
2021/08/18 00:34:35;;;;;;;6.80;5.68;;;;;;;17.03;69.06;97398.91;5051559;28;20040;-80
2021/08/18 00:37:01;;;;;;;8.25;6.28;;;;;;;16.98;69.01;97393.72;5052927;28;20029;-79
2021/08/18 00:39:26;;;;;;;9.55;7.20;;;;;;;16.93;69.74;97398.22;5018575;28;20051;-79
2021/08/18 00:41:53;;;;;;;7.75;6.10;;;;;;;16.88;69.65;97396.47;5034692;28;20137;-79
2021/08/18 00:44:18;;;;;;;7.78;6.60;;;;;;;16.89;69.90;97395.38;5018558;28;20029;-79
2021/08/18 00:46:52;;;;;;;9.48;6.93;;;;;;;16.91;69.38;97406.41;5034649;28;20032;-79
2021/08/18 00:49:19;;;;;;;8.95;7.15;;;;;;;16.92;69.17;97388.78;5028661;28;20025;-79
2021/08/18 00:51:45;;;;;;;8.43;6.30;;;;;;;16.96;68.99;97390.56;5035392;28;20106;-79
2021/08/18 00:54:10;;;;;;;6.97;6.25;;;;;;;16.97;69.37;97391.38;5052330;28;20519;-79
2021/08/18 00:56:35;;;;;;;7.82;6.57;;;;;;;16.94;69.41;97391.91;5034850;28;20101;-79
2021/08/18 00:59:01;;;;;;;8.32;5.57;;;;;;;17.01;69.21;97395.00;5018242;28;20417;-79
2021/08/18 01:01:26;;;;;;;7.65;6.60;;;;;;;16.95;69.05;97389.00;5034599;28;20569;-79
2021/08/18 01:03:51;;;;;;;7.15;6.43;;;;;;;16.89;69.73;97398.00;5034220;28;20037;-79
2021/08/18 01:06:17;;;;;;;8.50;7.60;;;;;;;16.89;69.78;97394.59;5018098;28;20045;-79
2021/08/18 01:08:42;;;;;;;8.77;7.10;;;;;;;16.93;69.75;97388.50;5018212;28;20044;-79
2021/08/18 01:11:08;;;;;;;7.55;6.82;;;;;;;16.88;69.61;97383.31;5017660;28;20033;-79
2021/08/18 01:13:33;;;;;;;9.88;7.40;;;;;;;16.97;69.25;97397.41;5018255;28;20057;-79
2021/08/18 01:15:59;;;;;;;8.70;6.97;;;;;;;17.02;69.12;97396.56;5033786;28;20032;-79
2021/08/18 01:18:24;;;;;;;9.07;7.93;;;;;;;16.99;69.47;97390.00;5033580;28;20025;-79
2021/08/18 01:20:50;;;;;;;10.35;8.73;;;;;;;16.97;69.39;97383.47;5017720;28;20527;-79
2021/08/18 01:23:16;;;;;;;10.48;8.07;;;;;;;17.03;69.03;97385.78;5049811;28;20214;-79
2021/08/18 01:25:43;;;;;;;12.57;8.55;;;;;;;17.00;68.91;97388.19;5034126;28;20397;-79
2021/08/18 01:28:09;;;;;;;10.68;8.32;;;;;;;17.04;68.85;97389.94;5033646;28;20064;-79
2021/08/18 01:30:35;;;;;;;10.82;8.52;;;;;;;16.99;69.14;97383.97;5051747;28;20033;-79
2021/08/18 01:33:04;;;;;;;11.68;9.20;;;;;;;16.97;69.27;97394.00;5050294;28;20495;-79
2021/08/18 01:35:34;;;;;;;12.63;9.15;;;;;;;16.78;70.23;97384.16;5051602;28;20155;-79
2021/08/18 01:38:01;;;;;;;14.18;10.70;;;;;;;16.95;69.81;97383.75;5034746;28;20116;-79
2021/08/18 01:40:27;;;;;;;10.73;8.02;;;;;;;16.99;69.65;97382.13;5053994;28;20036;-79
2021/08/18 01:42:53;;;;;;;13.95;9.95;;;;;;;17.09;69.27;97386.47;5053428;28;20025;-79
2021/08/18 01:45:21;;;;;;;14.02;10.40;;;;;;;17.10;68.73;97385.44;5053587;28;20024;-79
2021/08/18 01:47:47;;;;;;;13.52;8.98;;;;;;;17.09;69.09;97383.06;5036616;28;20458;-79
2021/08/18 01:50:12;;;;;;;14.80;9.93;;;;;;;17.12;69.01;97382.50;5052920;28;20036;-79
2021/08/18 01:52:38;;;;;;;15.68;10.50;;;;;;;17.09;69.02;97383.06;5032513;28;20434;-79
2021/08/18 01:55:04;;;;;;;15.02;9.85;;;;;;;17.07;69.22;97383.34;5036635;28;20501;-79
2021/08/18 01:57:30;;;;;;;16.85;10.95;;;;;;;17.05;69.52;97388.13;5052660;28;20059;-80
2021/08/18 01:59:55;;;;;;;15.18;10.48;;;;;;;17.04;69.59;97384.69;5020132;28;20024;-79
2021/08/18 02:02:20;;;;;;;14.23;10.73;;;;;;;17.01;69.52;97382.63;5052535;28;20033;-79
2021/08/18 02:04:46;;;;;;;16.40;10.57;;;;;;;17.05;69.53;97385.50;5036521;28;20054;-79
2021/08/18 02:07:11;;;;;;;13.68;10.10;;;;;;;17.06;69.52;97383.63;5035674;28;20051;-79
2021/08/18 02:09:36;;;;;;;15.10;10.65;;;;;;;17.05;69.60;97377.59;5052857;28;20600;-79
2021/08/18 02:12:02;;;;;;;13.07;10.13;;;;;;;17.11;69.31;97386.22;5020803;28;20037;-79
2021/08/18 02:14:27;;;;;;;15.80;11.02;;;;;;;17.12;69.06;97387.75;5032896;28;20115;-79
2021/08/18 02:16:53;;;;;;;12.65;9.48;;;;;;;17.12;69.51;97382.50;5050469;28;20123;-79
2021/08/18 02:19:18;;;;;;;13.35;10.52;;;;;;;17.10;69.18;97382.81;5016326;28;20036;-79
2021/08/18 02:21:44;;;;;;;15.63;10.27;;;;;;;17.11;69.28;97378.31;5023860;28;20042;-78
2021/08/18 02:24:09;;;;;;;15.02;11.13;;;;;;;17.10;69.60;97389.88;5036103;28;20024;-79
2021/08/18 02:26:34;;;;;;;15.25;10.52;;;;;;;17.20;68.89;97377.41;5012442;28;20028;-79
2021/08/18 02:29:00;;;;;;;14.48;10.50;;;;;;;17.14;69.49;97383.03;5012306;28;20124;-79
2021/08/18 02:31:27;;;;;;;15.55;10.27;;;;;;;17.09;69.62;97378.59;5032776;28;20036;-79
2021/08/18 02:33:53;;;;;;;15.55;11.35;;;;;;;16.97;70.07;97381.63;5016573;28;20064;-79
2021/08/18 02:36:18;;;;;;;16.20;11.32;;;;;;;16.96;70.33;97387.94;5000237;28;20028;-79
2021/08/18 02:38:44;;;;;;;15.15;11.45;;;;;;;17.08;70.03;97384.13;5032468;28;20029;-79
2021/08/18 02:41:09;;;;;;;14.93;10.57;;;;;;;17.11;69.73;97383.56;5016522;28;20024;-79
2021/08/18 02:43:35;;;;;;;17.27;11.98;;;;;;;17.07;69.89;97386.00;5032443;28;20074;-79
2021/08/18 02:46:00;;;;;;;16.35;11.10;;;;;;;17.02;70.00;97381.56;5016122;28;20539;-79
2021/08/18 02:48:25;;;;;;;17.45;11.43;;;;;;;17.10;69.79;97382.00;5015564;28;20029;-79
2021/08/18 02:50:51;;;;;;;13.65;10.52;;;;;;;17.15;69.82;97380.13;5015759;28;20036;-79
2021/08/18 02:53:16;;;;;;;15.00;11.07;;;;;;;17.11;69.67;97376.47;5033276;28;20074;-79
2021/08/18 02:55:41;;;;;;;14.15;10.65;;;;;;;17.11;69.53;97381.72;5032159;28;20025;-79
2021/08/18 02:58:07;;;;;;;15.95;10.55;;;;;;;17.21;69.41;97383.44;4999198;28;20087;-79
2021/08/18 03:00:32;;;;;;;12.82;9.30;;;;;;;17.21;69.58;97386.09;5025050;28;20603;-79
2021/08/18 03:02:58;;;;;;;15.80;11.27;;;;;;;17.15;69.81;97374.03;5070363;28;20044;-79
2021/08/18 03:05:23;;;;;;;16.90;11.60;;;;;;;17.10;69.89;97374.91;5052132;28;20074;-79
2021/08/18 03:07:48;;;;;;;16.90;11.18;;;;;;;17.12;69.72;97377.22;5052392;28;20090;-79
2021/08/18 03:10:14;;;;;;;13.70;9.82;;;;;;;17.13;69.62;97378.81;5052493;28;20036;-79
2021/08/18 03:12:40;;;;;;;15.23;10.60;;;;;;;17.10;69.85;97376.75;5052682;28;20056;-79
2021/08/18 03:15:06;;;;;;;16.55;10.43;;;;;;;17.11;69.64;97375.69;5070728;28;20482;-79
2021/08/18 03:17:32;;;;;;;17.40;11.18;;;;;;;17.13;69.51;97378.81;5018264;28;20449;-79
2021/08/18 03:19:57;;;;;;;17.85;10.77;;;;;;;17.15;69.56;97377.47;5052220;28;20058;-79
2021/08/18 03:22:23;;;;;;;13.05;9.98;;;;;;;17.22;69.47;97380.53;5057488;28;20658;-79
2021/08/18 03:24:49;;;;;;;14.60;10.35;;;;;;;17.17;69.85;97385.06;5032288;28;20035;-79
2021/08/18 03:27:14;;;;;;;13.07;9.18;;;;;;;17.25;69.01;97386.31;5032058;28;20125;-79
2021/08/18 03:29:40;;;;;;;12.35;9.43;;;;;;;17.20;69.10;97376.63;5032378;28;20110;-79
2021/08/18 03:32:05;;;;;;;13.38;10.10;;;;;;;17.17;69.63;97374.53;5031518;28;20120;-79
2021/08/18 03:34:31;;;;;;;11.55;8.60;;;;;;;17.21;69.41;97378.19;5032055;28;20039;-79
2021/08/18 03:36:58;;;;;;;12.40;8.63;;;;;;;17.12;69.97;97378.03;5031515;28;20058;-79
2021/08/18 03:39:24;;;;;;;14.20;8.90;;;;;;;17.11;70.21;97383.56;5032083;28;20115;-79
2021/08/18 03:41:49;;;;;;;11.68;8.32;;;;;;;17.13;69.88;97382.22;5049207;28;20432;-79
2021/08/18 03:44:15;;;;;;;13.98;9.60;;;;;;;17.18;69.88;97378.75;5048617;28;20052;-79
2021/08/18 03:46:40;;;;;;;11.50;8.05;;;;;;;17.16;69.68;97378.25;5048097;28;20045;-79
2021/08/18 03:49:05;;;;;;;13.73;9.60;;;;;;;17.16;69.66;97378.25;5018119;28;20143;-79
2021/08/18 03:51:31;;;;;;;13.40;9.65;;;;;;;17.24;69.33;97375.00;5031626;28;20097;-79
2021/08/18 03:53:56;;;;;;;12.95;9.27;;;;;;;17.27;69.46;97379.69;5019509;28;20029;-79
2021/08/18 03:56:21;;;;;;;14.68;9.68;;;;;;;17.24;69.74;97380.25;5031652;28;20353;-79
2021/08/18 03:58:47;;;;;;;13.15;8.98;;;;;;;17.25;69.74;97381.03;5015341;28;20111;-79
2021/08/18 04:01:12;;;;;;;13.98;9.00;;;;;;;17.22;69.90;97371.84;5015843;28;20033;-79
2021/08/18 04:03:38;;;;;;;12.77;9.07;;;;;;;17.19;69.87;97373.22;5031635;28;20043;-79
2021/08/18 04:06:03;;;;;;;12.38;8.70;;;;;;;17.15;69.96;97377.47;5034800;28;20391;-79
2021/08/18 04:08:29;;;;;;;11.90;8.35;;;;;;;17.20;69.78;97373.97;5018448;28;20052;-79
2021/08/18 04:10:54;;;;;;;10.82;8.50;;;;;;;17.22;69.87;97383.19;5018907;28;20025;-79
2021/08/18 04:13:20;;;;;;;12.93;8.50;;;;;;;17.22;69.88;97383.19;5053226;28;20025;-79
2021/08/18 04:15:45;;;;;;;13.35;8.77;;;;;;;17.23;69.82;97379.47;5018573;28;20049;-79
2021/08/18 04:18:11;;;;;;;11.60;9.02;;;;;;;17.26;69.71;97388.66;5034806;28;20404;-79
2021/08/18 04:20:37;;;;;;;10.07;8.05;;;;;;;17.33;69.15;97394.34;5035435;28;20066;-79
2021/08/18 04:23:03;;;;;;;12.20;8.93;;;;;;;17.28;69.86;97391.00;5032817;28;20036;-79
2021/08/18 04:25:29;;;;;;;12.07;8.25;;;;;;;17.30;69.67;97389.66;5048135;28;20029;-79
2021/08/18 04:27:54;;;;;;;9.98;8.00;;;;;;;17.34;69.46;97395.94;5034868;28;20033;-79
2021/08/18 04:30:22;;;;;;;11.60;8.57;;;;;;;17.20;70.12;97384.50;5035202;28;20063;-79
2021/08/18 04:32:48;;;;;;;11.77;8.75;;;;;;;17.30;69.76;97397.53;5018844;28;20028;-79
2021/08/18 04:35:15;;;;;;;8.90;6.93;;;;;;;17.32;69.56;97398.03;5034418;28;20025;-79
2021/08/18 04:37:41;;;;;;;11.38;8.25;;;;;;;17.28;69.56;97404.16;5034617;28;20029;-79
2021/08/18 04:40:10;;;;;;;11.45;7.70;;;;;;;17.28;69.63;97402.31;5018523;28;20040;-79
2021/08/18 04:42:38;;;;;;;9.50;7.47;;;;;;;17.29;69.34;97398.63;5018328;28;20032;-79
2021/08/18 04:45:08;;;;;;;10.65;7.82;;;;;;;17.30;69.47;97402.81;5018752;28;20044;-79
2021/08/18 04:47:33;;;;;;;9.32;7.10;;;;;;;17.25;69.72;97402.88;5017582;28;20041;-79
2021/08/18 04:49:59;;;;;;;9.82;7.05;;;;;;;17.31;69.82;97407.00;5018212;28;20529;-79
2021/08/18 04:52:24;;;;;;;9.52;7.10;;;;;;;17.37;69.36;97402.47;5053154;28;20068;-79
2021/08/18 04:54:50;;;;;;;10.35;7.53;;;;;;;17.38;69.21;97404.03;5034590;28;20032;-79
2021/08/18 04:57:16;;;;;;;8.90;7.55;;;;;;;17.35;69.50;97397.47;5037296;28;20653;-79
2021/08/18 04:59:41;;;;;;;9.90;7.57;;;;;;;17.40;69.07;97407.16;5053734;28;20589;-79
2021/08/18 05:02:06;;;;;;;9.13;7.25;;;;;;;17.41;69.27;97406.13;5036264;28;20036;-79
2021/08/18 05:04:32;;;;;;;10.15;7.38;;;;;;;17.36;69.71;97404.31;5035818;28;20500;-79
2021/08/18 05:06:57;;;;;;;9.77;7.55;;;;;;;17.44;69.52;97396.84;5052606;28;20056;-79
2021/08/18 05:09:22;;;;;;;8.55;6.90;;;;;;;17.46;69.56;97403.41;5052815;28;20032;-79
2021/08/18 05:11:48;;;;;;;10.32;7.60;;;;;;;17.46;69.61;97402.63;5049574;28;20039;-79
2021/08/18 05:14:13;;;;;;;10.60;7.53;;;;;;;17.50;69.76;97403.63;5032675;28;20048;-78
2021/08/18 05:16:38;;;;;;;9.13;7.15;;;;;;;17.48;69.53;97408.38;5032233;28;20025;-78
2021/08/18 05:19:04;;;;;;;9.15;7.18;;;;;;;17.47;69.84;97406.81;5016298;28;20029;-78
2021/08/18 05:21:29;;;;;;;11.45;8.27;;;;;;;17.47;69.57;97406.81;5032170;28;20036;-79
2021/08/18 05:23:55;;;;;;;8.23;6.72;;;;;;;17.49;69.59;97405.47;5016139;28;20029;-78
2021/08/18 05:26:20;;;;;;;10.30;7.53;;;;;;;17.50;70.23;97395.72;5033798;28;20029;-79
2021/08/18 05:28:46;;;;;;;10.60;8.25;;;;;;;17.51;69.59;97405.97;5052277;28;20036;-79
2021/08/18 05:31:11;;;;;;;9.00;7.97;;;;;;;17.56;69.65;97403.28;5052038;28;20303;-79
2021/08/18 05:33:36;;;;;;;9.25;7.78;;;;;;;17.57;69.29;97404.06;5052449;28;20028;-79
2021/08/18 05:36:03;;;;;;;9.00;7.45;;;;;;;17.56;69.51;97407.75;5053021;28;20032;-79
2021/08/18 05:38:28;;;;;;;10.85;8.02;;;;;;;17.49;69.78;97413.34;5052696;28;20032;-78
2021/08/18 05:40:54;;;;;;;11.07;8.10;;;;;;;17.52;70.07;97409.38;5036367;28;20264;-78
2021/08/18 05:43:19;;;;;;;10.77;7.95;;;;;;;17.57;69.62;97404.84;5052891;28;20038;-79
2021/08/18 05:45:45;;;;;;;11.13;8.20;;;;;;;17.59;69.84;97399.28;5036310;28;20029;-79
2021/08/18 05:48:10;;;;;;;12.02;9.15;;;;;;;17.60;69.81;97408.75;5029891;28;20029;-79
2021/08/18 05:50:35;;;;;;;15.32;10.63;;;;;;;17.56;69.90;97400.66;5036580;28;20039;-79
2021/08/18 05:53:01;;;;;;;12.55;9.07;;;;;;;17.65;69.77;97405.25;5042998;28;20033;-79
2021/08/18 05:55:26;;;;;;;12.70;9.00;;;;;;;17.59;70.09;97409.81;5013240;28;20124;-79
2021/08/18 05:57:52;;;;;;;9.65;8.15;;;;;;;17.70;69.61;97410.44;5032619;28;20721;-78
2021/08/18 06:00:17;;;;;;;11.32;8.02;;;;;;;17.67;69.39;97409.19;5052482;28;20391;-78
2021/08/18 06:02:43;;;;;;;11.45;7.68;;;;;;;17.70;69.56;97402.56;5019874;28;20119;-79
2021/08/18 06:05:09;;;;;;;10.02;7.38;;;;;;;17.69;69.66;97401.78;5052584;28;20487;-78
2021/08/18 06:07:34;;;;;;;9.52;7.28;;;;;;;17.71;69.51;97404.91;5018706;28;20044;-78
2021/08/18 06:10:00;;;;;;;9.35;6.32;;;;;;;17.74;69.02;97412.25;5052641;28;20063;-79
2021/08/18 06:12:25;;;;;;;8.43;6.13;;;;;;;17.72;69.91;97405.72;5052441;28;20490;-79
2021/08/18 06:14:50;;;;;;;7.40;5.32;;;;;;;17.77;69.40;97409.03;5035967;28;20040;-79
2021/08/18 06:17:16;;;;;;;7.40;5.38;;;;;;;17.74;69.39;97403.56;5052131;28;20028;-78
2021/08/18 06:19:41;;;;;;;6.72;5.35;;;;;;;17.76;69.49;97411.97;5070205;28;20644;-79
2021/08/18 06:22:06;;;;;;;6.82;5.30;;;;;;;17.79;69.51;97401.63;5034444;28;20487;-79
2021/08/18 06:24:49;;;;;;;6.82;4.35;;;;;;;17.87;68.65;97410.00;5019390;28;20055;-78
2021/08/18 06:27:14;;;;;;;6.60;5.10;;;;;;;17.83;68.90;97406.34;5069085;28;20082;-79
2021/08/18 06:29:39;;;;;;;4.60;4.13;;;;;;;17.89;68.82;97418.38;5018842;28;20055;-78
2021/08/18 06:32:05;;;;;;;5.88;4.18;;;;;;;17.91;68.79;97418.91;5036070;28;20025;-78
2021/08/18 06:34:31;;;;;;;5.13;4.20;;;;;;;17.91;68.54;97418.91;5052010;28;20472;-78
2021/08/18 06:37:01;;;;;;;5.97;4.30;;;;;;;17.93;68.78;97416.75;5051675;28;20107;-78
2021/08/18 06:39:29;;;;;;;5.65;4.70;;;;;;;17.94;67.95;97418.31;5015890;28;20610;-78
2021/08/18 06:41:54;;;;;;;6.20;4.70;;;;;;;17.98;68.21;97419.31;5032545;28;20052;-79
2021/08/18 06:44:22;;;;;;;5.47;3.92;;;;;;;18.03;67.94;97421.09;5034411;28;20079;-78
2021/08/18 06:46:47;;;;;;;5.25;4.47;;;;;;;18.06;67.97;97415.25;5015329;28;20036;-78
2021/08/18 06:49:14;;;;;;;6.55;5.20;;;;;;;18.05;68.23;97422.38;5000110;28;20551;-78
2021/08/18 06:51:39;;;;;;;5.97;4.45;;;;;;;18.06;68.04;97412.59;5028864;28;20120;-78
2021/08/18 06:54:05;;;;;;;6.72;4.28;;;;;;;18.15;67.68;97416.94;5032065;28;20051;-78
2021/08/18 06:56:31;;;;;;;6.40;4.60;;;;;;;18.10;68.50;97422.28;5031449;28;20103;-78
2021/08/18 06:58:56;;;;;;;6.78;5.15;;;;;;;18.14;68.41;97415.38;5015131;28;20037;-78
2021/08/18 07:01:22;;;;;;;5.07;4.57;;;;;;;18.20;67.58;97420.56;5015233;28;20052;-78
2021/08/18 07:03:47;;;;;;;5.50;4.60;;;;;;;18.22;67.51;97415.81;5014854;28;20037;-79
2021/08/18 07:06:12;;;;;;;4.95;4.45;;;;;;;18.21;67.83;97414.22;5015017;28;20460;-78
2021/08/18 07:08:38;;;;;;;5.38;4.53;;;;;;;18.12;68.74;97414.09;5014661;28;20387;-78
2021/08/18 07:11:03;;;;;;;5.28;4.30;;;;;;;18.22;68.50;97421.09;5031660;28;20127;-78
2021/08/18 07:13:28;;;;;;;5.32;4.32;;;;;;;18.24;67.86;97414.44;5014972;28;20048;-79
2021/08/18 07:15:54;;;;;;;5.57;4.57;;;;;;;18.19;67.97;97419.00;5031234;28;20083;-78
2021/08/18 07:18:21;;;;;;;5.13;4.45;;;;;;;18.19;68.17;97430.31;5031632;28;20025;-78
2021/08/18 07:20:47;;;;;;;5.97;5.00;;;;;;;18.22;67.18;97421.84;5015351;28;20340;-78
2021/08/18 07:23:12;;;;;;;5.05;4.00;;;;;;;18.24;67.62;97426.84;5034130;28;20111;-78
2021/08/18 07:25:37;;;;;;;5.68;4.65;;;;;;;18.25;67.99;97423.91;5029127;28;20514;-78
2021/08/18 07:28:03;;;;;;;6.63;5.60;;;;;;;18.14;68.57;97414.59;5047757;28;20440;-78
2021/08/18 07:30:31;;;;;;;5.88;4.60;;;;;;;18.19;67.85;97422.44;5049354;28;20484;-78
2021/08/18 07:32:56;;;;;;;8.25;4.90;;;;;;;18.25;67.65;97415.22;5020846;28;20033;-78
2021/08/18 07:35:24;;;;;;;6.22;4.47;;;;;;;18.26;67.59;97416.78;5051863;28;20025;-78
2021/08/18 07:37:50;;;;;;;6.18;4.53;;;;;;;18.17;67.94;97418.53;5034473;28;20033;-78
2021/08/18 07:40:16;;;;;;;7.43;5.63;;;;;;;18.07;68.43;97416.81;5038938;28;20028;-78
2021/08/18 07:42:42;;;;;;;8.05;5.82;;;;;;;18.15;67.90;97419.59;5055725;28;20540;-79
2021/08/18 07:45:08;;;;;;;8.02;5.03;;;;;;;18.17;68.12;97421.94;5038939;28;20426;-78
2021/08/18 07:47:34;;;;;;;8.23;5.57;;;;;;;18.18;68.23;97412.97;5038163;28;20398;-78
2021/08/18 07:49:59;;;;;;;8.68;6.05;;;;;;;18.18;68.74;97420.06;5072607;28;20116;-78
2021/08/18 07:52:24;;;;;;;9.68;6.13;;;;;;;18.26;67.79;97414.16;5038147;28;20028;-78
2021/08/18 07:54:50;;;;;;;9.70;6.05;;;;;;;18.26;67.54;97420.19;5070752;28;20584;-78
2021/08/18 07:57:15;;;;;;;8.40;5.57;;;;;;;18.31;67.79;97416.72;5017688;28;20052;-78
2021/08/18 07:59:41;;;;;;;8.35;5.80;;;;;;;18.35;66.85;97422.97;5051627;28;20025;-78
2021/08/18 08:02:06;;;;;;;8.48;5.88;;;;;;;18.37;67.12;97418.19;5051482;28;20330;-78
2021/08/18 08:04:32;;;;;;;8.95;5.65;;;;;;;18.41;67.26;97424.44;5034761;28;20070;-78
2021/08/18 08:06:57;;;;;;;7.60;5.32;;;;;;;18.45;67.19;97422.78;5017456;28;20072;-78
2021/08/18 08:09:22;;;;;;;9.18;6.13;;;;;;;18.44;67.72;97415.97;5051477;28;20159;-78
2021/08/18 08:11:48;;;;;;;7.75;5.53;;;;;;;18.53;66.70;97422.13;5044348;28;20032;-79
2021/08/18 08:14:13;;;;;;;5.95;4.80;;;;;;;18.57;66.27;97432.09;5054589;28;20024;-78
2021/08/18 08:16:39;;;;;;;8.15;6.00;;;;;;;18.55;66.30;97424.47;5054077;28;20321;-78
2021/08/18 08:19:05;;;;;;;6.35;5.28;;;;;;;18.62;66.12;97427.53;5021305;28;20047;-78
2021/08/18 08:21:31;;;;;;;7.57;5.43;;;;;;;18.68;65.98;97436.16;5036318;28;20066;-78
2021/08/18 08:23:56;;;;;;;6.32;4.68;;;;;;;18.65;65.76;97431.44;5054461;28;20501;-78
2021/08/18 08:26:22;;;;;;;5.60;4.72;;;;;;;18.64;66.84;97429.88;5053753;28;20103;-78
2021/08/18 08:28:47;;;;;;;6.63;5.28;;;;;;;18.66;66.81;97425.09;5037572;28;20060;-78
2021/08/18 08:31:12;;;;;;;5.10;3.70;;;;;;;18.71;65.56;97431.06;5054236;28;20059;-78
2021/08/18 08:33:38;;;;;;;4.50;3.78;;;;;;;18.62;66.34;97432.78;5053870;28;20107;-78
2021/08/18 08:36:03;;;;;;;4.30;3.58;;;;;;;18.78;65.59;97432.53;5053819;28;20024;-78
2021/08/18 08:38:29;;;;;;;3.65;3.05;;;;;;;18.86;65.41;97429.25;5036881;28;20035;-78
2021/08/18 08:40:54;;;;;;;3.53;3.15;;;;;;;18.92;65.79;97441.28;5037197;28;20119;-78
2021/08/18 08:43:22;;;;;;;3.30;3.00;;;;;;;18.94;64.63;97428.59;5020834;28;20028;-78
2021/08/18 08:45:47;;;;;;;3.00;2.70;;;;;;;19.00;64.66;97437.94;5053326;28;20032;-78
2021/08/18 08:48:17;;;;;;;2.40;2.20;;;;;;;19.08;64.50;97433.88;5053143;28;20042;-78
2021/08/18 08:50:49;;;;;;;2.47;2.28;;;;;;;19.30;63.78;97440.31;5035595;28;20115;-78
2021/08/18 08:53:14;;;;;;;3.03;2.10;;;;;;;19.67;62.82;97439.28;5036554;28;20062;-77
2021/08/18 08:55:42;;;;;;;2.35;2.15;;;;;;;19.76;63.15;97436.78;5053115;28;20597;-77
2021/08/18 08:58:07;;;;;;;2.38;1.98;;;;;;;19.86;61.93;97439.19;5019578;28;20115;-77
2021/08/18 09:00:33;;;;;;;3.75;2.03;;;;;;;19.78;63.34;97434.59;5053086;28;20420;-77
2021/08/18 09:03:18;;;;;;;1.77;1.67;;;;;;;19.63;62.58;97447.00;5052707;28;20045;-77
2021/08/18 09:05:45;;;;;;;2.03;1.83;;;;;;;19.70;61.43;97443.97;5020264;28;20502;-77
2021/08/18 09:08:12;;;;;;;2.13;1.92;;;;;;;19.79;63.38;97436.16;5035819;28;20422;-77
2021/08/18 09:10:39;;;;;;;1.92;1.83;;;;;;;19.92;62.48;97427.41;5019869;28;20029;-77
2021/08/18 09:13:14;;;;;;;3.30;1.85;;;;;;;19.74;61.61;97433.59;5053070;28;20533;-78
2021/08/18 09:15:41;;;;;;;1.85;1.75;;;;;;;19.79;63.24;97438.78;5035928;28;20032;-77
2021/08/18 09:18:07;;;;;;;1.77;1.50;;;;;;;19.83;63.13;97439.78;5052519;28;20059;-77
2021/08/18 09:20:33;;;;;;;2.15;1.95;;;;;;;19.59;63.77;97440.78;5052494;28;20529;-77
2021/08/18 09:23:02;;;;;;;2.70;2.13;;;;;;;19.52;62.73;97437.75;5034714;28;20077;-77
2021/08/18 09:25:35;;;;;;;2.50;2.30;;;;;;;19.38;64.24;97442.25;5052277;28;20079;-77
2021/08/18 09:28:01;;;;;;;2.45;2.25;;;;;;;19.47;64.54;97445.78;5036245;28;20029;-77
2021/08/18 09:30:37;;;;;;;2.33;2.13;;;;;;;19.33;64.67;97434.44;5035609;28;20036;-77
2021/08/18 09:33:09;;;;;;;2.42;2.22;;;;;;;19.35;64.17;97438.34;5035704;28;20033;-77
2021/08/18 09:35:34;;;;;;;2.63;2.42;;;;;;;19.62;63.40;97439.38;5035760;28;20386;-77
2021/08/18 09:38:09;;;;;;;2.60;2.30;;;;;;;19.53;63.60;97438.53;5051650;28;20058;-77
2021/08/18 09:40:40;;;;;;;2.28;1.95;;;;;;;19.56;62.75;97435.31;5052359;28;20431;-78
2021/08/18 09:43:12;;;;;;;4.15;2.40;;;;;;;19.53;63.17;97428.75;5052362;28;20036;-78
2021/08/18 09:45:40;;;;;;;3.33;2.40;;;;;;;19.72;62.72;97430.47;5035732;28;20531;-77
2021/08/18 09:48:06;;;;;;;3.00;2.47;;;;;;;19.71;63.19;97434.22;5018464;28;20024;-77
2021/08/18 09:50:40;;;;;;;2.67;2.15;;;;;;;19.74;62.16;97438.88;5048668;28;20037;-77
2021/08/18 09:53:18;;;;;;;2.72;2.30;;;;;;;19.71;61.88;97423.63;5035635;28;20029;-78
2021/08/18 09:55:50;;;;;;;2.13;1.92;;;;;;;19.84;61.47;97428.13;5034282;28;20369;-78
2021/08/18 09:58:30;;;;;;;2.28;2.08;;;;;;;19.81;61.01;97424.22;5050992;28;20025;-78
2021/08/18 10:00:57;;;;;;;4.57;2.20;;;;;;;19.93;62.39;97420.25;5048829;28;20108;-78
2021/08/18 10:03:24;;;;;;;2.25;1.88;;;;;;;20.16;60.45;97413.91;5009265;28;20332;-78
2021/08/18 10:05:50;;;;;;;1.77;1.67;;;;;;;20.38;59.91;97426.34;5033235;28;20036;-78
2021/08/18 10:08:17;;;;;;;2.47;2.15;;;;;;;20.56;60.16;97421.94;5016892;28;20033;-79
2021/08/18 10:10:42;;;;;;;1.75;1.65;;;;;;;20.67;58.70;97417.19;5016500;28;20036;-79
2021/08/18 10:13:09;;;;;;;2.35;1.98;;;;;;;20.75;59.09;97416.47;5016254;28;20120;-79
2021/08/18 10:15:35;;;;;;;1.70;1.58;;;;;;;20.82;58.83;97421.31;5016205;28;20029;-79
2021/08/18 10:18:00;;;;;;;2.13;1.77;;;;;;;20.85;58.00;97411.97;5032651;28;20036;-79
2021/08/18 10:20:26;;;;;;;2.10;1.90;;;;;;;20.88;57.21;97412.16;5017837;28;20082;-79
2021/08/18 10:23:03;;;;;;;1.77;1.67;;;;;;;20.73;57.82;97407.25;5029710;28;20044;-79
2021/08/18 10:25:35;;;;;;;1.65;1.55;;;;;;;20.89;57.67;97412.94;5018129;28;20091;-79
2021/08/18 10:28:05;;;;;;;1.85;1.75;;;;;;;21.19;57.55;97421.13;5035528;28;20037;-79
2021/08/18 10:30:32;;;;;;;1.85;1.70;;;;;;;21.30;57.69;97409.16;5052523;28;20107;-79
2021/08/18 10:32:57;;;;;;;2.28;1.55;;;;;;;21.55;56.35;97409.56;5018876;28;20450;-78
2021/08/18 10:35:35;;;;;;;2.55;1.60;;;;;;;21.46;58.10;97412.16;5034792;28;20060;-77
2021/08/18 10:38:27;;;;;;;1.20;1.10;;;;;;;21.57;58.37;97413.44;5051556;28;20066;-77
2021/08/18 10:40:53;;;;;;;1.50;1.40;;;;;;;22.15;56.90;97408.75;5047613;28;20555;-77
2021/08/18 10:43:59;;;;;;;1.40;1.30;;;;;;;22.22;55.12;97406.41;5051395;28;20483;-77
2021/08/18 10:46:25;;;;;;;1.58;1.48;;;;;;;22.50;54.66;97406.09;5017446;28;20036;-77
2021/08/18 10:48:53;;;;;;;2.20;1.27;;;;;;;22.23;55.19;97405.31;5018808;28;20028;-77
2021/08/18 10:51:40;;;;;;;1.02;1.02;;;;;;;22.12;54.61;97408.63;5032600;28;20391;-77
2021/08/18 10:54:27;;;;;;;0.95;0.90;;;;;;;21.96;56.82;97410.97;5051386;28;20101;-77
2021/08/18 10:56:57;;;;;;;1.92;1.20;;;;;;;22.14;54.97;97409.06;5050676;28;20029;-77
2021/08/18 10:59:36;;;;;;;1.95;1.10;;;;;;;22.12;56.69;97398.00;5051913;28;20517;-77
2021/08/18 11:02:07;;;;;;;1.77;1.17;;;;;;;22.02;56.37;97399.09;5035255;28;20040;-77
2021/08/18 11:04:47;;;;;;;1.23;1.13;;;;;;;21.99;57.00;97413.00;5050898;28;20557;-77
2021/08/18 11:07:13;;;;;;;1.30;1.20;;;;;;;22.31;54.36;97403.00;5034257;28;20028;-77
2021/08/18 11:09:48;;;;;;;1.70;1.50;;;;;;;22.16;53.69;97404.25;5017789;28;20029;-77
2021/08/18 11:12:46;;;;;;;1.40;1.30;;;;;;;22.28;54.92;97400.97;5033586;28;20495;-77
2021/08/18 11:15:20;;;;;;;2.15;1.38;;;;;;;22.35;56.49;97402.06;5027251;28;20140;-77
2021/08/18 11:17:50;;;;;;;1.63;1.52;;;;;;;22.39;55.30;97402.19;5035759;28;20037;-77
2021/08/18 11:20:17;;;;;;;1.70;1.60;;;;;;;22.96;53.79;97401.06;5002136;28;20056;-77
2021/08/18 11:22:43;;;;;;;1.55;1.45;;;;;;;22.99;54.92;97398.53;5018352;28;20040;-77
2021/08/18 11:25:17;;;;;;;1.45;1.35;;;;;;;23.12;54.12;97404.00;5019753;28;20047;-77
2021/08/18 11:27:47;;;;;;;1.65;1.55;;;;;;;23.04;52.28;97394.94;5018921;28;20037;-77